sensor_id;sensor_type;location;lat;lon;timestamp;pressure;altitude;pressure_sealevel;temperature;humidity
73016;BME280;61893;50.074;14.440;2023-06-22T00:02:02;98681.56;;;19.33;98.63
73016;BME280;61893;50.074;14.440;2023-06-22T00:04:28;98686.97;;;19.33;98.75
73016;BME280;61893;50.074;14.440;2023-06-22T00:07:00;98689.25;;;19.23;99.65
73016;BME280;61893;50.074;14.440;2023-06-22T00:09:26;98689.03;;;19.25;99.34
73016;BME280;61893;50.074;14.440;2023-06-22T00:12:04;98689.84;;;19.25;99.79
73016;BME280;61893;50.074;14.440;2023-06-22T00:14:30;98687.56;;;19.22;99.70
73016;BME280;61893;50.074;14.440;2023-06-22T00:16:55;98691.72;;;19.25;99.73
73016;BME280;61893;50.074;14.440;2023-06-22T00:19:24;98686.34;;;19.25;99.82
73016;BME280;61893;50.074;14.440;2023-06-22T00:22:08;98689.84;;;19.19;99.95
73016;BME280;61893;50.074;14.440;2023-06-22T00:24:34;98687.34;;;19.17;100.00
73016;BME280;61893;50.074;14.440;2023-06-22T00:27:04;98690.66;;;19.19;99.52
73016;BME280;61893;50.074;14.440;2023-06-22T00:29:31;98690.66;;;19.12;100.00
73016;BME280;61893;50.074;14.440;2023-06-22T00:31:59;98687.97;;;19.12;99.94
73016;BME280;61893;50.074;14.440;2023-06-22T00:34:25;98697.94;;;19.12;100.00
73016;BME280;61893;50.074;14.440;2023-06-22T00:36:50;98690.84;;;19.11;100.00
73016;BME280;61893;50.074;14.440;2023-06-22T00:39:17;98697.28;;;19.10;100.00
73016;BME280;61893;50.074;14.440;2023-06-22T00:41:43;98696.66;;;19.08;100.00
73016;BME280;61893;50.074;14.440;2023-06-22T00:44:08;98690.03;;;19.04;100.00
73016;BME280;61893;50.074;14.440;2023-06-22T00:46:34;98683.16;;;19.01;100.00
73016;BME280;61893;50.074;14.440;2023-06-22T00:49:00;98678.59;;;19.02;100.00
73016;BME280;61893;50.074;14.440;2023-06-22T00:51:26;98681.88;;;18.90;100.00
73016;BME280;61893;50.074;14.440;2023-06-22T00:53:55;98687.69;;;18.87;100.00
73016;BME280;61893;50.074;14.440;2023-06-22T00:56:24;98683.94;;;18.88;100.00
73016;BME280;61893;50.074;14.440;2023-06-22T00:58:51;98676.06;;;18.87;100.00
73016;BME280;61893;50.074;14.440;2023-06-22T01:01:18;98675.25;;;18.93;100.00
73016;BME280;61893;50.074;14.440;2023-06-22T01:03:51;98669.44;;;18.89;100.00
73016;BME280;61893;50.074;14.440;2023-06-22T01:06:25;98665.28;;;18.87;100.00
73016;BME280;61893;50.074;14.440;2023-06-22T01:09:04;98659.88;;;18.87;100.00
73016;BME280;61893;50.074;14.440;2023-06-22T01:11:36;98660.50;;;18.82;100.00
73016;BME280;61893;50.074;14.440;2023-06-22T01:14:12;98658.00;;;18.81;100.00
73016;BME280;61893;50.074;14.440;2023-06-22T01:16:41;98656.72;;;18.77;100.00
73016;BME280;61893;50.074;14.440;2023-06-22T01:19:40;98651.75;;;18.74;100.00
73016;BME280;61893;50.074;14.440;2023-06-22T01:22:10;98657.78;;;18.76;100.00
73016;BME280;61893;50.074;14.440;2023-06-22T01:29:58;98656.13;;;18.75;100.00
73016;BME280;61893;50.074;14.440;2023-06-22T01:32:29;98645.75;;;18.78;100.00
73016;BME280;61893;50.074;14.440;2023-06-22T01:34:59;98647.81;;;18.76;100.00
73016;BME280;61893;50.074;14.440;2023-06-22T01:37:31;98657.72;;;18.69;100.00
73016;BME280;61893;50.074;14.440;2023-06-22T01:39:58;98646.94;;;18.69;100.00
73016;BME280;61893;50.074;14.440;2023-06-22T01:42:26;98648.88;;;18.75;100.00
73016;BME280;61893;50.074;14.440;2023-06-22T01:44:53;98652.94;;;18.71;100.00
73016;BME280;61893;50.074;14.440;2023-06-22T01:47:20;98646.31;;;18.67;100.00
73016;BME280;61893;50.074;14.440;2023-06-22T01:49:47;98646.94;;;18.69;100.00
73016;BME280;61893;50.074;14.440;2023-06-22T01:52:13;98656.69;;;18.63;100.00
73016;BME280;61893;50.074;14.440;2023-06-22T01:54:39;98646.06;;;18.62;100.00
73016;BME280;61893;50.074;14.440;2023-06-22T01:57:06;98660.84;;;18.66;100.00
73016;BME280;61893;50.074;14.440;2023-06-22T01:59:39;98661.84;;;18.65;100.00
73016;BME280;61893;50.074;14.440;2023-06-22T02:02:11;98674.47;;;18.58;100.00
73016;BME280;61893;50.074;14.440;2023-06-22T02:04:47;98670.94;;;18.57;100.00
73016;BME280;61893;50.074;14.440;2023-06-22T02:07:17;98672.19;;;18.61;100.00
73016;BME280;61893;50.074;14.440;2023-06-22T02:09:45;98674.25;;;18.53;100.00
73016;BME280;61893;50.074;14.440;2023-06-22T02:12:13;98670.72;;;18.52;100.00
73016;BME280;61893;50.074;14.440;2023-06-22T02:14:45;98674.41;;;18.51;100.00
73016;BME280;61893;50.074;14.440;2023-06-22T02:17:14;98672.94;;;18.42;100.00
73016;BME280;61893;50.074;14.440;2023-06-22T02:19:43;98671.91;;;18.43;100.00
73016;BME280;61893;50.074;14.440;2023-06-22T02:22:09;98678.53;;;18.40;100.00
73016;BME280;61893;50.074;14.440;2023-06-22T02:24:35;98673.31;;;18.32;100.00
73016;BME280;61893;50.074;14.440;2023-06-22T02:27:02;98669.00;;;18.38;100.00
73016;BME280;61893;50.074;14.440;2023-06-22T02:29:28;98678.06;;;18.30;100.00
73016;BME280;61893;50.074;14.440;2023-06-22T02:31:54;98679.69;;;18.31;100.00
73016;BME280;61893;50.074;14.440;2023-06-22T02:34:21;98682.78;;;18.28;100.00
73016;BME280;61893;50.074;14.440;2023-06-22T02:36:48;98680.09;;;18.28;100.00
73016;BME280;61893;50.074;14.440;2023-06-22T02:39:21;98681.16;;;18.34;100.00
73016;BME280;61893;50.074;14.440;2023-06-22T02:41:51;98674.94;;;18.27;100.00
73016;BME280;61893;50.074;14.440;2023-06-22T02:44:18;98680.91;;;18.22;100.00
73016;BME280;61893;50.074;14.440;2023-06-22T02:46:48;98674.91;;;18.20;100.00
73016;BME280;61893;50.074;14.440;2023-06-22T02:49:13;98678.81;;;18.17;100.00
73016;BME280;61893;50.074;14.440;2023-06-22T02:51:44;98666.13;;;18.11;100.00
73016;BME280;61893;50.074;14.440;2023-06-22T02:54:10;98666.72;;;18.07;100.00
73016;BME280;61893;50.074;14.440;2023-06-22T02:56:36;98663.78;;;18.01;100.00
73016;BME280;61893;50.074;14.440;2023-06-22T02:59:02;98665.50;;;18.09;100.00
73016;BME280;61893;50.074;14.440;2023-06-22T03:01:31;98667.56;;;18.07;100.00
73016;BME280;61893;50.074;14.440;2023-06-22T03:04:03;98664.72;;;18.15;100.00
73016;BME280;61893;50.074;14.440;2023-06-22T03:06:30;98658.00;;;18.05;100.00
73016;BME280;61893;50.074;14.440;2023-06-22T03:09:00;98665.28;;;18.11;100.00
73016;BME280;61893;50.074;14.440;2023-06-22T03:11:32;98663.50;;;18.18;100.00
73016;BME280;61893;50.074;14.440;2023-06-22T03:13:58;98663.28;;;18.19;100.00
73016;BME280;61893;50.074;14.440;2023-06-22T03:16:24;98670.78;;;18.24;100.00
73016;BME280;61893;50.074;14.440;2023-06-22T03:18:51;98677.88;;;18.32;100.00
73016;BME280;61893;50.074;14.440;2023-06-22T03:21:22;98671.25;;;18.34;100.00
73016;BME280;61893;50.074;14.440;2023-06-22T03:24:05;98671.94;;;18.50;100.00
73016;BME280;61893;50.074;14.440;2023-06-22T03:26:34;98676.03;;;18.39;100.00
73016;BME280;61893;50.074;14.440;2023-06-22T03:29:00;98677.97;;;18.52;100.00
73016;BME280;61893;50.074;14.440;2023-06-22T03:31:26;98688.38;;;18.68;100.00
73016;BME280;61893;50.074;14.440;2023-06-22T03:33:52;98681.16;;;18.68;100.00
73016;BME280;61893;50.074;14.440;2023-06-22T03:36:18;98682.22;;;18.74;100.00
73016;BME280;61893;50.074;14.440;2023-06-22T03:38:49;98688.50;;;18.88;99.21
73016;BME280;61893;50.074;14.440;2023-06-22T03:41:15;98679.66;;;19.14;97.27
73016;BME280;61893;50.074;14.440;2023-06-22T03:43:40;98681.66;;;19.67;94.14
73016;BME280;61893;50.074;14.440;2023-06-22T03:46:06;98685.16;;;20.20;90.51
73016;BME280;61893;50.074;14.440;2023-06-22T03:48:43;98683.59;;;20.64;86.99
73016;BME280;61893;50.074;14.440;2023-06-22T03:51:11;98682.03;;;20.88;85.55
73016;BME280;61893;50.074;14.440;2023-06-22T03:53:37;98677.09;;;20.79;84.97
73016;BME280;61893;50.074;14.440;2023-06-22T03:56:03;98678.69;;;21.38;81.98
73016;BME280;61893;50.074;14.440;2023-06-22T03:58:29;98677.75;;;21.76;79.25
73016;BME280;61893;50.074;14.440;2023-06-22T04:00:58;98682.72;;;22.66;75.34
73016;BME280;61893;50.074;14.440;2023-06-22T04:03:28;98672.31;;;23.00;73.61
73016;BME280;61893;50.074;14.440;2023-06-22T04:06:18;98660.19;;;23.44;71.36
73016;BME280;61893;50.074;14.440;2023-06-22T04:08:48;98665.38;;;23.88;69.00
73016;BME280;61893;50.074;14.440;2023-06-22T04:11:17;98658.50;;;24.20;67.28
73016;BME280;61893;50.074;14.440;2023-06-22T04:13:43;98657.44;;;24.45;65.91
73016;BME280;61893;50.074;14.440;2023-06-22T04:16:09;98661.06;;;24.62;64.94
73016;BME280;61893;50.074;14.440;2023-06-22T04:18:35;98662.13;;;25.02;63.80
73016;BME280;61893;50.074;14.440;2023-06-22T04:21:02;98662.44;;;25.17;62.72
73016;BME280;61893;50.074;14.440;2023-06-22T04:23:29;98657.22;;;24.87;63.61
73016;BME280;61893;50.074;14.440;2023-06-22T04:25:57;98653.31;;;25.11;63.02
73016;BME280;61893;50.074;14.440;2023-06-22T04:28:24;98657.16;;;25.73;60.94
73016;BME280;61893;50.074;14.440;2023-06-22T04:30:50;98658.25;;;25.26;61.98
73016;BME280;61893;50.074;14.440;2023-06-22T04:33:48;98662.03;;;24.56;64.73
73016;BME280;61893;50.074;14.440;2023-06-22T04:36:30;98657.59;;;24.79;63.88
73016;BME280;61893;50.074;14.440;2023-06-22T04:39:02;98664.66;;;24.04;66.67
73016;BME280;61893;50.074;14.440;2023-06-22T04:41:28;98665.53;;;25.37;62.32
73016;BME280;61893;50.074;14.440;2023-06-22T04:43:53;98662.69;;;25.04;62.29
73016;BME280;61893;50.074;14.440;2023-06-22T04:46:22;98674.09;;;26.09;59.39
73016;BME280;61893;50.074;14.440;2023-06-22T04:48:58;98676.31;;;25.44;60.86
73016;BME280;61893;50.074;14.440;2023-06-22T04:51:27;98674.97;;;26.92;56.49
73016;BME280;61893;50.074;14.440;2023-06-22T04:53:55;98680.03;;;27.81;53.47
73016;BME280;61893;50.074;14.440;2023-06-22T04:56:26;98685.66;;;28.07;52.77
73016;BME280;61893;50.074;14.440;2023-06-22T04:58:56;98687.16;;;28.72;50.13
73016;BME280;61893;50.074;14.440;2023-06-22T05:01:29;98682.50;;;29.56;47.95
73016;BME280;61893;50.074;14.440;2023-06-22T05:03:58;98687.44;;;29.39;48.05
73016;BME280;61893;50.074;14.440;2023-06-22T05:06:26;98690.81;;;28.88;49.34
73016;BME280;61893;50.074;14.440;2023-06-22T05:08:55;98687.19;;;28.78;49.95
73016;BME280;61893;50.074;14.440;2023-06-22T05:11:26;98684.94;;;28.64;50.07
73016;BME280;61893;50.074;14.440;2023-06-22T05:13:58;98691.03;;;27.10;54.28
73016;BME280;61893;50.074;14.440;2023-06-22T05:16:26;98702.41;;;27.02;54.83
73016;BME280;61893;50.074;14.440;2023-06-22T05:18:53;98703.06;;;28.70;50.77
73016;BME280;61893;50.074;14.440;2023-06-22T05:21:23;98707.22;;;29.72;47.16
73016;BME280;61893;50.074;14.440;2023-06-22T05:23:50;98703.75;;;28.45;49.93
73016;BME280;61893;50.074;14.440;2023-06-22T05:26:17;98704.63;;;28.61;50.85
73016;BME280;61893;50.074;14.440;2023-06-22T05:28:47;98714.56;;;30.58;45.43
73016;BME280;61893;50.074;14.440;2023-06-22T05:31:41;98712.97;;;30.11;45.69
73016;BME280;61893;50.074;14.440;2023-06-22T05:34:22;98710.72;;;28.68;49.42
73016;BME280;61893;50.074;14.440;2023-06-22T05:36:52;98723.31;;;30.70;45.03
73016;BME280;61893;50.074;14.440;2023-06-22T05:39:17;98722.84;;;30.38;45.11
73016;BME280;61893;50.074;14.440;2023-06-22T05:41:46;98733.06;;;30.22;45.24
73016;BME280;61893;50.074;14.440;2023-06-22T05:44:13;98744.41;;;32.00;41.59
73016;BME280;61893;50.074;14.440;2023-06-22T05:46:58;98747.25;;;32.19;40.73
73016;BME280;61893;50.074;14.440;2023-06-22T05:49:24;98752.03;;;32.71;39.80
73016;BME280;61893;50.074;14.440;2023-06-22T05:51:55;98741.88;;;32.08;40.51
73016;BME280;61893;50.074;14.440;2023-06-22T05:54:22;98741.88;;;31.09;42.04
73016;BME280;61893;50.074;14.440;2023-06-22T05:56:48;98741.25;;;29.86;45.61
73016;BME280;61893;50.074;14.440;2023-06-22T05:59:16;98735.94;;;29.49;47.76
73016;BME280;61893;50.074;14.440;2023-06-22T06:01:46;98733.34;;;29.06;49.94
73016;BME280;61893;50.074;14.440;2023-06-22T06:04:31;98735.31;;;29.11;50.29
73016;BME280;61893;50.074;14.440;2023-06-22T06:07:01;98730.00;;;28.94;50.51
73016;BME280;61893;50.074;14.440;2023-06-22T06:09:27;98727.25;;;28.94;50.92
73016;BME280;61893;50.074;14.440;2023-06-22T06:11:54;98745.81;;;28.77;51.13
73016;BME280;61893;50.074;14.440;2023-06-22T06:14:30;98739.41;;;29.13;50.53
73016;BME280;61893;50.074;14.440;2023-06-22T06:16:57;98735.06;;;28.70;51.15
73016;BME280;61893;50.074;14.440;2023-06-22T06:19:30;98736.31;;;30.24;46.98
73016;BME280;61893;50.074;14.440;2023-06-22T06:21:57;98737.56;;;30.93;45.35
73016;BME280;61893;50.074;14.440;2023-06-22T06:24:27;98742.25;;;31.47;43.95
73016;BME280;61893;50.074;14.440;2023-06-22T06:26:58;98741.28;;;31.72;43.18
73016;BME280;61893;50.074;14.440;2023-06-22T06:29:31;98739.63;;;32.11;42.21
73016;BME280;61893;50.074;14.440;2023-06-22T06:32:00;98738.66;;;31.96;42.63
73016;BME280;61893;50.074;14.440;2023-06-22T06:34:28;98735.25;;;32.39;41.75
73016;BME280;61893;50.074;14.440;2023-06-22T06:36:59;98734.53;;;32.28;41.37
73016;BME280;61893;50.074;14.440;2023-06-22T06:39:26;98732.66;;;32.23;41.68
73016;BME280;61893;50.074;14.440;2023-06-22T06:41:55;98727.03;;;32.34;41.67
73016;BME280;61893;50.074;14.440;2023-06-22T06:44:20;98722.38;;;32.34;41.89
73016;BME280;61893;50.074;14.440;2023-06-22T06:46:47;98720.94;;;32.07;42.06
73016;BME280;61893;50.074;14.440;2023-06-22T06:49:12;98729.88;;;31.94;43.18
73016;BME280;61893;50.074;14.440;2023-06-22T06:51:39;98729.31;;;31.97;42.92
73016;BME280;61893;50.074;14.440;2023-06-22T06:54:05;98718.38;;;32.16;42.66
73016;BME280;61893;50.074;14.440;2023-06-22T06:56:31;98713.69;;;32.75;41.36
73016;BME280;61893;50.074;14.440;2023-06-22T07:02:44;98714.41;;;33.85;38.49
73016;BME280;61893;50.074;14.440;2023-06-22T07:05:26;98718.56;;;33.26;39.82
73016;BME280;61893;50.074;14.440;2023-06-22T07:11:14;98705.03;;;32.82;39.96
73016;BME280;61893;50.074;14.440;2023-06-22T07:22:26;98695.63;;;34.01;37.11
73016;BME280;61893;50.074;14.440;2023-06-22T07:58:08;98662.75;;;33.15;39.36
73016;BME280;61893;50.074;14.440;2023-06-22T08:34:36;98623.41;;;32.67;40.28
73016;BME280;61893;50.074;14.440;2023-06-22T08:41:02;98621.91;;;33.55;38.04
73016;BME280;61893;50.074;14.440;2023-06-22T09:08:21;98606.19;;;32.99;39.40
73016;BME280;61893;50.074;14.440;2023-06-22T09:13:40;98604.84;;;32.53;40.86
73016;BME280;61893;50.074;14.440;2023-06-22T09:16:53;98602.38;;;32.52;39.85
73016;BME280;61893;50.074;14.440;2023-06-22T09:19:26;98608.88;;;32.37;40.21
73016;BME280;61893;50.074;14.440;2023-06-22T09:21:58;98602.97;;;32.92;38.92
73016;BME280;61893;50.074;14.440;2023-06-22T09:24:44;98596.81;;;32.57;39.39
73016;BME280;61893;50.074;14.440;2023-06-22T09:27:32;98589.13;;;32.97;38.85
73016;BME280;61893;50.074;14.440;2023-06-22T09:30:36;98587.31;;;32.68;39.05
73016;BME280;61893;50.074;14.440;2023-06-22T09:33:06;98590.59;;;32.89;38.39
73016;BME280;61893;50.074;14.440;2023-06-22T09:35:54;98592.16;;;32.77;38.86
73016;BME280;61893;50.074;14.440;2023-06-22T09:38:36;98585.00;;;33.32;37.60
73016;BME280;61893;50.074;14.440;2023-06-22T09:43:58;98575.28;;;32.59;39.19
73016;BME280;61893;50.074;14.440;2023-06-22T09:46:44;98579.19;;;31.07;42.30
73016;BME280;61893;50.074;14.440;2023-06-22T09:49:25;98591.38;;;31.70;40.87
73016;BME280;61893;50.074;14.440;2023-06-22T09:52:28;98582.66;;;31.28;41.94
73016;BME280;61893;50.074;14.440;2023-06-22T10:20:24;98564.31;;;29.78;45.45
73016;BME280;61893;50.074;14.440;2023-06-22T10:23:09;98562.56;;;30.34;44.96
73016;BME280;61893;50.074;14.440;2023-06-22T10:25:40;98571.38;;;30.10;44.86
73016;BME280;61893;50.074;14.440;2023-06-22T10:30:47;98560.03;;;31.02;43.35
73016;BME280;61893;50.074;14.440;2023-06-22T10:34:04;98562.13;;;30.66;44.28
73016;BME280;61893;50.074;14.440;2023-06-22T10:36:46;98556.44;;;30.47;44.76
73016;BME280;61893;50.074;14.440;2023-06-22T10:39:16;98561.31;;;30.65;43.79
73016;BME280;61893;50.074;14.440;2023-06-22T10:41:42;98557.28;;;30.47;44.22
73016;BME280;61893;50.074;14.440;2023-06-22T10:44:11;98557.66;;;30.25;45.70
73016;BME280;61893;50.074;14.440;2023-06-22T10:46:39;98543.19;;;29.99;45.82
73016;BME280;61893;50.074;14.440;2023-06-22T10:49:05;98544.19;;;30.24;45.58
73016;BME280;61893;50.074;14.440;2023-06-22T10:51:31;98541.88;;;30.57;44.65
73016;BME280;61893;50.074;14.440;2023-06-22T10:54:06;98546.63;;;30.36;45.25
73016;BME280;61893;50.074;14.440;2023-06-22T10:56:32;98538.69;;;30.34;45.21
73016;BME280;61893;50.074;14.440;2023-06-22T10:59:02;98548.91;;;30.03;45.65
73016;BME280;61893;50.074;14.440;2023-06-22T11:01:50;98535.00;;;29.53;47.07
73016;BME280;61893;50.074;14.440;2023-06-22T11:04:32;98529.78;;;29.67;46.14
73016;BME280;61893;50.074;14.440;2023-06-22T11:07:19;98531.16;;;29.80;45.92
73016;BME280;61893;50.074;14.440;2023-06-22T11:09:54;98532.25;;;29.58;46.62
73016;BME280;61893;50.074;14.440;2023-06-22T11:12:27;98525.16;;;29.68;46.43
73016;BME280;61893;50.074;14.440;2023-06-22T11:14:57;98517.88;;;30.07;45.90
73016;BME280;61893;50.074;14.440;2023-06-22T11:17:24;98511.91;;;29.90;45.77
73016;BME280;61893;50.074;14.440;2023-06-22T11:19:51;98518.19;;;30.01;45.40
73016;BME280;61893;50.074;14.440;2023-06-22T11:22:18;98518.25;;;29.70;45.96
73016;BME280;61893;50.074;14.440;2023-06-22T11:24:49;98518.81;;;29.67;46.20
73016;BME280;61893;50.074;14.440;2023-06-22T11:27:16;98513.63;;;29.66;46.16
73016;BME280;61893;50.074;14.440;2023-06-22T11:29:44;98508.91;;;29.92;46.15
73016;BME280;61893;50.074;14.440;2023-06-22T11:32:10;98509.06;;;30.16;45.69
73016;BME280;61893;50.074;14.440;2023-06-22T11:34:36;98504.72;;;30.09;45.86
73016;BME280;61893;50.074;14.440;2023-06-22T11:37:26;98491.50;;;30.27;45.46
73016;BME280;61893;50.074;14.440;2023-06-22T11:40:07;98481.06;;;30.29;46.07
73016;BME280;61893;50.074;14.440;2023-06-22T11:42:49;98486.97;;;29.92;46.13
73016;BME280;61893;50.074;14.440;2023-06-22T11:45:17;98478.63;;;30.17;45.93
73016;BME280;61893;50.074;14.440;2023-06-22T11:47:43;98482.19;;;30.23;45.60
73016;BME280;61893;50.074;14.440;2023-06-22T11:50:10;98469.72;;;30.46;45.18
73016;BME280;61893;50.074;14.440;2023-06-22T11:52:37;98472.00;;;30.34;44.96
73016;BME280;61893;50.074;14.440;2023-06-22T11:55:06;98460.72;;;30.80;44.11
73016;BME280;61893;50.074;14.440;2023-06-22T11:57:35;98465.63;;;30.88;44.50
73016;BME280;61893;50.074;14.440;2023-06-22T12:00:03;98476.47;;;30.59;44.83
73016;BME280;61893;50.074;14.440;2023-06-22T12:02:33;98484.91;;;30.28;44.98
73016;BME280;61893;50.074;14.440;2023-06-22T12:04:59;98475.44;;;30.49;43.98
73016;BME280;61893;50.074;14.440;2023-06-22T12:07:46;98467.25;;;30.44;43.79
73016;BME280;61893;50.074;14.440;2023-06-22T12:10:29;98460.34;;;30.47;43.45
73016;BME280;61893;50.074;14.440;2023-06-22T12:13:10;98462.59;;;30.45;43.33
73016;BME280;61893;50.074;14.440;2023-06-22T12:15:37;98467.84;;;30.36;43.69
73016;BME280;61893;50.074;14.440;2023-06-22T12:18:03;98465.78;;;30.57;43.42
73016;BME280;61893;50.074;14.440;2023-06-22T12:20:30;98458.66;;;30.95;41.75
73016;BME280;61893;50.074;14.440;2023-06-22T12:22:55;98468.22;;;31.03;41.38
73016;BME280;61893;50.074;14.440;2023-06-22T12:25:24;98454.44;;;31.08;40.54
73016;BME280;61893;50.074;14.440;2023-06-22T12:27:50;98447.72;;;30.90;40.46
73016;BME280;61893;50.074;14.440;2023-06-22T12:30:17;98449.91;;;30.93;40.46
73016;BME280;61893;50.074;14.440;2023-06-22T12:32:43;98445.50;;;30.92;40.17
73016;BME280;61893;50.074;14.440;2023-06-22T12:35:10;98461.97;;;30.97;40.38
73016;BME280;61893;50.074;14.440;2023-06-22T12:37:42;98432.97;;;30.76;41.22
73016;BME280;61893;50.074;14.440;2023-06-22T12:40:09;98434.03;;;30.85;41.06
73016;BME280;61893;50.074;14.440;2023-06-22T12:42:35;98431.78;;;31.22;40.30
73016;BME280;61893;50.074;14.440;2023-06-22T12:45:05;98421.78;;;31.02;40.87
73016;BME280;61893;50.074;14.440;2023-06-22T12:47:31;98424.97;;;30.85;40.75
73016;BME280;61893;50.074;14.440;2023-06-22T12:49:57;98418.56;;;31.24;40.08
73016;BME280;61893;50.074;14.440;2023-06-22T12:52:23;98418.84;;;30.93;40.35
73016;BME280;61893;50.074;14.440;2023-06-22T12:54:49;98419.00;;;31.07;40.46
73016;BME280;61893;50.074;14.440;2023-06-22T12:57:15;98412.53;;;31.22;40.46
73016;BME280;61893;50.074;14.440;2023-06-22T12:59:43;98409.38;;;31.09;40.90
73016;BME280;61893;50.074;14.440;2023-06-22T13:02:09;98415.44;;;31.35;39.94
73016;BME280;61893;50.074;14.440;2023-06-22T13:04:36;98417.16;;;31.26;40.48
73016;BME280;61893;50.074;14.440;2023-06-22T13:07:01;98403.66;;;31.30;39.85
73016;BME280;61893;50.074;14.440;2023-06-22T13:09:28;98390.06;;;31.44;39.82
73016;BME280;61893;50.074;14.440;2023-06-22T13:11:56;98387.53;;;31.47;39.99
73016;BME280;61893;50.074;14.440;2023-06-22T13:14:26;98386.56;;;31.33;39.86
73016;BME280;61893;50.074;14.440;2023-06-22T13:17:04;98387.03;;;31.16;40.41
73016;BME280;61893;50.074;14.440;2023-06-22T13:19:53;98375.56;;;31.09;40.87
73016;BME280;61893;50.074;14.440;2023-06-22T13:22:34;98377.25;;;31.05;40.83
73016;BME280;61893;50.074;14.440;2023-06-22T13:25:13;98370.94;;;30.36;42.52
73016;BME280;61893;50.074;14.440;2023-06-22T13:27:59;98372.97;;;31.23;40.93
73016;BME280;61893;50.074;14.440;2023-06-22T13:30:25;98374.00;;;31.27;40.99
73016;BME280;61893;50.074;14.440;2023-06-22T13:32:51;98372.59;;;31.29;40.73
73016;BME280;61893;50.074;14.440;2023-06-22T13:35:17;98364.84;;;31.07;41.06
73016;BME280;61893;50.074;14.440;2023-06-22T13:37:48;98367.16;;;31.24;40.53
73016;BME280;61893;50.074;14.440;2023-06-22T13:40:17;98367.44;;;31.52;40.54
73016;BME280;61893;50.074;14.440;2023-06-22T13:42:42;98368.56;;;31.51;39.70
73016;BME280;61893;50.074;14.440;2023-06-22T13:45:28;98361.63;;;31.53;39.69
73016;BME280;61893;50.074;14.440;2023-06-22T13:47:58;98357.84;;;31.49;40.05
73016;BME280;61893;50.074;14.440;2023-06-22T13:50:46;98347.59;;;31.55;40.21
73016;BME280;61893;50.074;14.440;2023-06-22T13:53:14;98356.09;;;31.05;40.96
73016;BME280;61893;50.074;14.440;2023-06-22T13:55:46;98362.66;;;31.09;41.41
73016;BME280;61893;50.074;14.440;2023-06-22T13:58:54;98355.66;;;31.22;41.40
73016;BME280;61893;50.074;14.440;2023-06-22T14:01:46;98346.81;;;31.25;40.02
73016;BME280;61893;50.074;14.440;2023-06-22T14:04:15;98345.50;;;31.47;39.57
73016;BME280;61893;50.074;14.440;2023-06-22T14:09:11;98335.44;;;31.37;39.29
73016;BME280;61893;50.074;14.440;2023-06-22T14:11:57;98344.91;;;31.50;39.39
73016;BME280;61893;50.074;14.440;2023-06-22T14:14:51;98339.63;;;31.53;38.82
73016;BME280;61893;50.074;14.440;2023-06-22T14:17:21;98336.63;;;31.02;39.56
73016;BME280;61893;50.074;14.440;2023-06-22T14:20:02;98335.13;;;31.38;39.37
73016;BME280;61893;50.074;14.440;2023-06-22T14:22:33;98338.13;;;31.42;39.66
73016;BME280;61893;50.074;14.440;2023-06-22T14:25:04;98322.50;;;31.37;38.97
73016;BME280;61893;50.074;14.440;2023-06-22T14:27:59;98335.25;;;31.28;39.04
73016;BME280;61893;50.074;14.440;2023-06-22T14:30:41;98331.28;;;30.86;39.94
73016;BME280;61893;50.074;14.440;2023-06-22T14:33:22;98324.44;;;31.37;39.20
73016;BME280;61893;50.074;14.440;2023-06-22T14:36:02;98321.22;;;31.97;38.52
73016;BME280;61893;50.074;14.440;2023-06-22T14:38:30;98317.44;;;31.87;38.96
73016;BME280;61893;50.074;14.440;2023-06-22T14:41:11;98310.94;;;32.02;38.01
73016;BME280;61893;50.074;14.440;2023-06-22T14:43:57;98308.09;;;31.89;39.46
73016;BME280;61893;50.074;14.440;2023-06-22T14:46:55;98303.66;;;31.26;41.07
73016;BME280;61893;50.074;14.440;2023-06-22T14:49:23;98305.06;;;31.47;40.94
73016;BME280;61893;50.074;14.440;2023-06-22T14:51:55;98293.41;;;31.31;41.33
73016;BME280;61893;50.074;14.440;2023-06-22T14:54:21;98298.31;;;31.39;40.23
73016;BME280;61893;50.074;14.440;2023-06-22T14:57:05;98304.53;;;31.21;40.53
73016;BME280;61893;50.074;14.440;2023-06-22T15:00:19;98293.19;;;31.52;40.88
73016;BME280;61893;50.074;14.440;2023-06-22T15:03:05;98286.34;;;31.49;41.03
73016;BME280;61893;50.074;14.440;2023-06-22T15:05:56;98284.50;;;31.63;40.90
73016;BME280;61893;50.074;14.440;2023-06-22T15:08:24;98279.81;;;31.45;41.29
73016;BME280;61893;50.074;14.440;2023-06-22T15:10:50;98296.09;;;31.60;40.71
73016;BME280;61893;50.074;14.440;2023-06-22T15:13:21;98286.78;;;31.37;41.51
73016;BME280;61893;50.074;14.440;2023-06-22T15:15:52;98281.84;;;31.10;42.10
73016;BME280;61893;50.074;14.440;2023-06-22T15:18:21;98278.09;;;31.25;41.30
73016;BME280;61893;50.074;14.440;2023-06-22T15:20:52;98277.22;;;31.54;40.99
73016;BME280;61893;50.074;14.440;2023-06-22T15:23:18;98271.38;;;31.12;41.52
73016;BME280;61893;50.074;14.440;2023-06-22T15:25:44;98271.00;;;31.19;40.34
73016;BME280;61893;50.074;14.440;2023-06-22T15:28:25;98263.03;;;31.23;40.09
73016;BME280;61893;50.074;14.440;2023-06-22T15:30:52;98264.28;;;31.54;39.47
73016;BME280;61893;50.074;14.440;2023-06-22T15:33:18;98255.88;;;31.22;40.12
73016;BME280;61893;50.074;14.440;2023-06-22T15:35:56;98258.88;;;31.25;39.99
73016;BME280;61893;50.074;14.440;2023-06-22T15:38:23;98242.22;;;31.16;40.17
73016;BME280;61893;50.074;14.440;2023-06-22T15:40:48;98233.38;;;31.19;40.62
73016;BME280;61893;50.074;14.440;2023-06-22T15:43:15;98238.41;;;31.12;40.90
73016;BME280;61893;50.074;14.440;2023-06-22T15:45:41;98232.47;;;31.24;41.00